createdAt,value
2023-03-10T00:01:13.727Z,37.87
2023-03-10T00:03:41.855Z,36.83
2023-03-10T00:06:12.624Z,37.37
2023-03-10T00:08:41.003Z,40.93
2023-03-10T00:11:09.442Z,34.60
2023-03-10T00:13:37.765Z,31.30
2023-03-10T00:16:06.720Z,35.73
2023-03-10T00:18:34.882Z,32.03
2023-03-10T00:21:02.777Z,34.23
2023-03-10T00:23:32.030Z,33.47
2023-03-10T00:26:01.872Z,34.63
2023-03-10T00:28:29.968Z,32.93
2023-03-10T00:30:59.794Z,31.43
2023-03-10T00:33:27.798Z,46.57
2023-03-10T00:36:07.264Z,30.67
2023-03-10T00:38:37.978Z,29.07
2023-03-10T00:41:08.304Z,40.07
2023-03-10T00:43:36.925Z,32.93
2023-03-10T00:46:05.436Z,30.07
2023-03-10T00:48:33.861Z,31.13
2023-03-10T00:51:01.633Z,32.77
2023-03-10T00:53:30.237Z,29.60
2023-03-10T00:56:01.390Z,31.77
2023-03-10T00:58:30.184Z,28.87
2023-03-10T01:00:58.247Z,29.70
2023-03-10T01:03:27.438Z,26.80
2023-03-10T01:05:56.187Z,28.77
2023-03-10T01:08:24.308Z,26.87
2023-03-10T01:10:52.806Z,30.30
2023-03-10T01:13:22.201Z,33.70
2023-03-10T01:15:51.320Z,29.53
2023-03-10T01:18:21.451Z,26.93
2023-03-10T01:20:49.903Z,27.57
2023-03-10T01:23:20.632Z,24.93
2023-03-10T01:25:48.900Z,27.13
2023-03-10T01:28:16.711Z,28.80
2023-03-10T01:30:46.275Z,24.33
2023-03-10T01:33:15.494Z,22.37
2023-03-10T01:35:43.746Z,25.43
2023-03-10T01:38:11.782Z,26.33
2023-03-10T01:40:40.118Z,28.57
2023-03-10T01:43:32.942Z,23.50
2023-03-10T01:46:43.253Z,23.37
2023-03-10T01:49:18.964Z,26.37
2023-03-10T01:51:51.558Z,20.50
2023-03-10T01:54:23.912Z,25.70
2023-03-10T01:56:53.374Z,20.67
2023-03-10T01:59:22.782Z,25.33
2023-03-10T02:01:53.485Z,19.60
2023-03-10T02:04:27.208Z,23.63
2023-03-10T02:06:56.252Z,27.67
2023-03-10T02:09:26.200Z,23.63
2023-03-10T02:11:55.103Z,21.67
2023-03-10T02:14:23.021Z,22.97
2023-03-10T02:16:52.377Z,20.80
2023-03-10T02:19:35.635Z,24.43
2023-03-10T02:22:07.313Z,24.83
2023-03-10T02:24:46.467Z,26.13
2023-03-10T02:27:24.745Z,25.50
2023-03-10T02:30:00.795Z,22.73
2023-03-10T02:32:31.807Z,27.10
2023-03-10T02:34:59.742Z,21.60
2023-03-10T02:37:30.112Z,22.70
2023-03-10T02:39:58.264Z,23.23
2023-03-10T02:42:31.602Z,25.43
2023-03-10T02:44:59.930Z,27.03
2023-03-10T02:47:28.000Z,24.80
2023-03-10T02:49:55.930Z,28.90
2023-03-10T02:52:30.619Z,24.70
2023-03-10T02:54:58.605Z,23.63
2023-03-10T02:57:28.008Z,27.13
2023-03-10T02:59:55.982Z,25.50
2023-03-10T03:02:27.522Z,28.23
2023-03-10T03:04:55.882Z,24.90
2023-03-10T03:07:23.801Z,26.70
2023-03-10T03:09:51.724Z,25.90
2023-03-10T03:12:22.520Z,22.47
2023-03-10T03:14:51.776Z,23.93
2023-03-10T03:17:19.648Z,22.40
2023-03-10T03:19:49.737Z,23.27
2023-03-10T03:22:17.670Z,23.63
2023-03-10T03:24:45.856Z,24.23
2023-03-10T03:27:13.981Z,21.83
2023-03-10T03:29:41.903Z,22.30
2023-03-10T03:32:11.091Z,20.37
2023-03-10T03:34:39.112Z,19.20
2023-03-10T03:37:07.173Z,20.27
2023-03-10T03:39:35.337Z,18.57
2023-03-10T03:42:03.390Z,20.83
2023-03-10T03:44:31.309Z,18.87
2023-03-10T03:46:59.421Z,18.50
2023-03-10T03:49:29.238Z,16.33
2023-03-10T03:51:57.259Z,19.67
2023-03-10T03:54:27.160Z,19.43
2023-03-10T03:56:58.399Z,20.60
2023-03-10T03:59:26.571Z,21.70
2023-03-10T04:01:54.468Z,17.70
2023-03-10T04:04:22.329Z,19.47
2023-03-10T04:06:51.493Z,18.07
2023-03-10T04:09:19.382Z,15.97
2023-03-10T04:11:47.536Z,18.93
2023-03-10T04:14:15.505Z,22.10
2023-03-10T04:16:43.343Z,21.43
2023-03-10T04:19:11.672Z,17.33
2023-03-10T04:21:39.952Z,16.63
2023-03-10T04:24:09.801Z,16.87
2023-03-10T04:26:37.731Z,18.23
2023-03-10T04:29:05.818Z,16.97
2023-03-10T04:31:33.982Z,14.43
2023-03-10T04:34:01.808Z,17.23
2023-03-10T04:36:29.833Z,17.37
2023-03-10T04:38:57.940Z,18.17
2023-03-10T04:41:27.066Z,17.07
2023-03-10T04:43:54.976Z,15.93
2023-03-10T04:46:22.743Z,14.13
2023-03-10T04:48:51.727Z,18.77
2023-03-10T04:51:22.161Z,14.70
2023-03-10T04:53:50.758Z,15.67
2023-03-10T04:56:20.732Z,13.33
2023-03-10T04:58:53.049Z,14.07
2023-03-10T05:01:21.000Z,14.80
2023-03-10T05:03:48.858Z,14.20
2023-03-10T05:06:19.421Z,14.40
2023-03-10T05:08:48.089Z,16.20
2023-03-10T05:11:15.972Z,14.93
2023-03-10T05:13:43.737Z,15.70
2023-03-10T05:16:18.284Z,14.00
2023-03-10T05:18:46.621Z,17.70
2023-03-10T05:21:15.054Z,17.73
2023-03-10T05:23:43.067Z,18.23
2023-03-10T05:26:12.382Z,16.37
2023-03-10T05:28:40.445Z,15.60
2023-03-10T05:31:14.414Z,17.57
2023-03-10T05:33:44.218Z,17.07
2023-03-10T05:36:14.714Z,16.60
2023-03-10T05:38:42.926Z,23.47
2023-03-10T05:41:11.441Z,22.83
2023-03-10T05:43:40.604Z,17.20
2023-03-10T05:46:09.334Z,15.63
2023-03-10T05:48:37.340Z,14.87
2023-03-10T05:51:09.077Z,11.33
2023-03-10T05:53:38.373Z,16.83
2023-03-10T05:56:07.874Z,19.70
2023-03-10T05:58:36.700Z,18.50
2023-03-10T06:01:05.728Z,15.50
2023-03-10T06:03:34.518Z,18.20
2023-03-10T06:06:02.931Z,17.43
2023-03-10T06:08:32.891Z,21.00
2023-03-10T06:11:01.043Z,17.90
2023-03-10T06:13:28.920Z,20.03
2023-03-10T06:15:59.337Z,18.90
2023-03-10T06:18:28.736Z,16.43
2023-03-10T06:20:57.565Z,16.10
2023-03-10T06:23:28.584Z,20.43
2023-03-10T06:25:59.920Z,14.80
2023-03-10T06:28:32.980Z,15.90
2023-03-10T06:31:03.149Z,20.50
2023-03-10T06:33:31.558Z,17.70
2023-03-10T06:35:59.588Z,20.37
2023-03-10T06:38:27.970Z,16.63
2023-03-10T06:40:56.029Z,18.33
2023-03-10T06:43:25.857Z,15.57
2023-03-10T06:45:54.257Z,16.90
2023-03-10T06:48:22.205Z,15.57
2023-03-10T06:50:50.450Z,16.90
2023-03-10T06:53:20.760Z,16.67
2023-03-10T06:55:58.416Z,17.97
2023-03-10T06:58:27.976Z,18.37
2023-03-10T07:00:56.137Z,16.67
2023-03-10T07:03:26.183Z,15.83
2023-03-10T07:05:54.252Z,18.63
2023-03-10T07:08:22.687Z,17.47
2023-03-10T07:10:51.848Z,16.70
2023-03-10T07:13:21.810Z,17.73
2023-03-10T07:15:51.338Z,16.43
2023-03-10T07:18:19.474Z,15.57
2023-03-10T07:20:48.185Z,17.20
2023-03-10T07:23:18.636Z,17.93
2023-03-10T07:25:46.816Z,20.80
2023-03-10T07:28:15.044Z,16.77
2023-03-10T07:30:43.173Z,32.10
2023-03-10T07:33:12.916Z,19.03
2023-03-10T07:35:40.913Z,33.27
2023-03-10T07:38:08.972Z,18.93
2023-03-10T07:40:39.006Z,17.07
2023-03-10T07:43:06.996Z,19.00
2023-03-10T07:45:35.662Z,16.47
2023-03-10T07:48:03.839Z,18.87
2023-03-10T07:50:33.091Z,23.83
2023-03-10T07:53:01.249Z,16.10
2023-03-10T07:55:29.287Z,18.97
2023-03-10T07:57:57.651Z,30.07
2023-03-10T08:00:25.678Z,18.80
2023-03-10T08:02:56.345Z,19.13
2023-03-10T08:05:24.492Z,18.73
2023-03-10T08:07:54.120Z,17.70
2023-03-10T08:10:22.252Z,18.77
2023-03-10T08:12:50.289Z,17.53
2023-03-10T08:15:18.406Z,18.13
2023-03-10T08:17:46.382Z,19.67
2023-03-10T08:20:14.822Z,19.40
2023-03-10T08:22:42.682Z,22.80
2023-03-10T08:25:13.049Z,20.00
2023-03-10T08:27:41.587Z,21.83
2023-03-10T08:30:10.949Z,21.90
2023-03-10T08:32:38.802Z,22.70
2023-03-10T08:35:08.267Z,23.83
2023-03-10T08:37:36.217Z,25.03
2023-03-10T08:40:08.294Z,22.37
2023-03-10T08:42:37.535Z,24.00
2023-03-10T08:45:08.498Z,27.80
2023-03-10T08:47:37.283Z,38.13
2023-03-10T08:50:06.310Z,22.70
2023-03-10T08:52:34.786Z,27.60
2023-03-10T08:55:05.050Z,26.70
2023-03-10T08:57:33.570Z,21.87
2023-03-10T09:00:05.257Z,26.23
2023-03-10T09:02:33.669Z,23.97
2023-03-10T09:05:01.519Z,27.60
2023-03-10T09:07:29.647Z,23.53
2023-03-10T09:09:57.696Z,23.33
2023-03-10T09:12:29.538Z,23.27
2023-03-10T09:15:00.586Z,22.00
2023-03-10T09:17:30.310Z,25.40
2023-03-10T09:19:58.153Z,18.17
2023-03-10T09:22:26.229Z,24.53
2023-03-10T09:24:54.022Z,19.40
2023-03-10T09:27:21.785Z,20.53
2023-03-10T09:29:52.316Z,22.70
2023-03-10T09:32:20.337Z,27.53
2023-03-10T09:34:49.876Z,20.27
2023-03-10T09:37:18.173Z,30.07
2023-03-10T09:39:46.041Z,20.80
2023-03-10T09:42:37.427Z,23.47
2023-03-10T09:45:26.686Z,21.97
2023-03-10T09:48:07.204Z,25.53
2023-03-10T09:50:41.781Z,28.83
2023-03-10T09:53:27.141Z,27.37
2023-03-10T09:55:55.428Z,32.27
2023-03-10T09:58:31.540Z,28.87
2023-03-10T10:01:00.737Z,23.80
2023-03-10T10:03:46.351Z,29.00
2023-03-10T10:06:27.659Z,24.47
2023-03-10T10:09:04.729Z,25.40
2023-03-10T10:11:33.280Z,27.97
2023-03-10T10:14:22.312Z,28.17
2023-03-10T10:17:02.829Z,26.57
2023-03-10T10:19:31.044Z,29.10
2023-03-10T10:22:04.594Z,21.93
2023-03-10T10:24:33.186Z,21.40
2023-03-10T10:27:01.373Z,25.67
2023-03-10T10:29:36.452Z,23.10
2023-03-10T10:32:11.073Z,29.40
2023-03-10T10:34:40.112Z,29.33
2023-03-10T10:37:29.883Z,25.57
2023-03-10T10:40:00.170Z,30.63
2023-03-10T10:42:30.612Z,28.47
2023-03-10T10:45:00.444Z,29.97
2023-03-10T10:47:31.952Z,27.73
2023-03-10T10:50:18.355Z,29.00
2023-03-10T10:52:49.970Z,24.70
2023-03-10T10:55:27.932Z,23.57
2023-03-10T10:57:59.752Z,22.37
2023-03-10T11:00:32.053Z,23.53
2023-03-10T11:03:00.705Z,20.60
2023-03-10T11:05:37.284Z,22.73
2023-03-10T11:08:21.114Z,22.77
2023-03-10T11:10:57.661Z,17.97
2023-03-10T11:13:32.727Z,22.53
2023-03-10T11:16:08.149Z,23.27
2023-03-10T11:18:40.475Z,22.60
2023-03-10T11:21:15.126Z,20.70
2023-03-10T11:24:01.057Z,22.57
2023-03-10T11:26:48.201Z,20.67
2023-03-10T11:29:26.761Z,22.77
2023-03-10T11:32:05.695Z,19.13
2023-03-10T11:34:40.687Z,20.67
2023-03-10T11:37:17.076Z,24.93
2023-03-10T11:39:55.927Z,22.73
2023-03-10T11:42:31.468Z,23.87
2023-03-10T11:45:12.427Z,18.47
2023-03-10T11:47:54.224Z,23.83
2023-03-10T11:50:37.006Z,22.63
2023-03-10T11:53:12.400Z,20.13
2023-03-10T11:55:43.604Z,25.13
2023-03-10T11:58:22.908Z,19.90
2023-03-10T12:00:55.117Z,24.40
2023-03-10T12:03:44.711Z,24.27
2023-03-10T12:06:17.309Z,25.80
2023-03-10T12:08:46.151Z,21.73
2023-03-10T12:11:20.292Z,23.17
2023-03-10T12:13:53.025Z,19.50
2023-03-10T12:16:25.134Z,21.80
2023-03-10T12:18:53.571Z,23.77
2023-03-10T12:21:26.671Z,21.53
2023-03-10T12:23:56.330Z,18.40
2023-03-10T12:27:03.673Z,19.60
2023-03-10T12:29:39.664Z,17.03
2023-03-10T12:32:44.144Z,18.20
2023-03-10T12:35:47.642Z,13.33
2023-03-10T12:38:31.820Z,11.50
2023-03-10T12:41:02.618Z,12.63
2023-03-10T12:43:56.059Z,11.57
2023-03-10T12:46:30.519Z,11.60
2023-03-10T12:49:15.160Z,12.00
2023-03-10T12:51:47.821Z,9.30
2023-03-10T12:54:35.459Z,7.57
2023-03-10T12:57:10.157Z,9.47
2023-03-10T12:59:45.243Z,7.37
2023-03-10T13:02:26.692Z,7.33
2023-03-10T13:05:01.691Z,8.53
2023-03-10T13:07:31.191Z,10.23
2023-03-10T13:10:01.945Z,8.77
2023-03-10T13:12:37.165Z,12.47
2023-03-10T13:15:08.947Z,12.07
2023-03-10T13:17:37.286Z,17.07
2023-03-10T13:20:13.638Z,13.90
2023-03-10T13:22:52.634Z,14.33
2023-03-10T13:25:20.677Z,15.23
2023-03-10T13:27:48.974Z,14.53
2023-03-10T13:30:21.281Z,11.50
2023-03-10T13:32:57.665Z,9.33
2023-03-10T13:35:32.055Z,9.70
2023-03-10T13:38:11.942Z,10.10
2023-03-10T13:40:42.659Z,9.70
2023-03-10T13:43:35.502Z,10.07
2023-03-10T13:46:09.744Z,9.40
2023-03-10T13:48:38.577Z,10.33
2023-03-10T13:51:08.930Z,8.13
2023-03-10T13:53:37.015Z,11.30
2023-03-10T13:56:19.072Z,10.57
2023-03-10T13:58:51.128Z,8.80
2023-03-10T14:01:24.224Z,8.47
2023-03-10T14:03:54.956Z,9.00
2023-03-10T14:06:23.521Z,10.33
2023-03-10T14:08:54.462Z,9.63
2023-03-10T14:11:34.904Z,7.80
2023-03-10T14:14:08.087Z,13.07
2023-03-10T14:16:52.386Z,9.07
2023-03-10T14:19:49.667Z,10.53
2023-03-10T14:22:37.625Z,10.90
2023-03-10T14:25:15.249Z,10.17
2023-03-10T14:27:44.817Z,11.50
2023-03-10T14:30:23.299Z,10.63
2023-03-10T14:32:53.646Z,10.53
2023-03-10T14:35:23.865Z,12.50
2023-03-10T14:37:53.172Z,8.47
2023-03-10T14:40:22.751Z,10.43
2023-03-10T14:42:55.572Z,9.07
2023-03-10T14:45:29.908Z,10.47
2023-03-10T14:48:01.407Z,8.93
2023-03-10T14:50:35.573Z,7.63
2023-03-10T14:53:03.779Z,11.93
2023-03-10T14:55:32.011Z,8.97
2023-03-10T14:58:03.098Z,9.13
2023-03-10T15:00:32.187Z,15.97
2023-03-10T15:03:01.838Z,9.47
2023-03-10T15:05:46.928Z,7.77
2023-03-10T15:08:16.716Z,6.83
2023-03-10T15:10:48.158Z,7.43
2023-03-10T15:13:18.296Z,9.63
2023-03-10T15:15:48.034Z,10.13
2023-03-10T15:18:24.720Z,12.30
2023-03-10T15:20:55.193Z,12.27
2023-03-10T15:23:23.036Z,10.80
2023-03-10T15:25:51.955Z,15.60
2023-03-10T15:28:19.796Z,11.00
2023-03-10T15:30:48.035Z,14.37
2023-03-10T15:33:18.004Z,11.13
2023-03-10T15:35:46.158Z,9.07
2023-03-10T15:38:15.906Z,8.77
2023-03-10T15:40:44.091Z,8.67
2023-03-10T15:43:11.922Z,9.47
2023-03-10T15:45:42.548Z,8.70
2023-03-10T15:48:11.425Z,10.30
2023-03-10T15:50:44.332Z,8.63
2023-03-10T15:53:13.476Z,10.07
2023-03-10T15:55:43.055Z,10.67
2023-03-10T15:58:12.091Z,7.93
2023-03-10T16:00:42.226Z,10.47
2023-03-10T16:03:11.261Z,11.10
2023-03-10T16:05:39.332Z,12.50
2023-03-10T16:08:08.716Z,11.10
2023-03-10T16:10:40.318Z,11.37
2023-03-10T16:13:11.538Z,13.07
2023-03-10T16:15:40.004Z,14.80
2023-03-10T16:18:07.832Z,12.13
2023-03-10T16:20:35.782Z,21.73
2023-03-10T16:23:03.771Z,14.87
2023-03-10T16:25:33.230Z,15.07
2023-03-10T16:28:01.004Z,14.63
2023-03-10T16:30:30.418Z,16.13
2023-03-10T16:33:00.846Z,14.43
2023-03-10T16:35:30.192Z,14.97
2023-03-10T16:37:58.800Z,17.03
2023-03-10T16:40:26.697Z,14.93
2023-03-10T16:42:56.085Z,15.63
2023-03-10T16:45:24.187Z,14.93
2023-03-10T16:47:52.641Z,15.67
2023-03-10T16:50:20.753Z,17.57
2023-03-10T16:52:48.707Z,17.00
2023-03-10T16:55:18.301Z,17.33
2023-03-10T16:57:46.617Z,16.23
2023-03-10T17:00:21.071Z,16.23
2023-03-10T17:02:49.384Z,20.20
2023-03-10T17:05:18.029Z,17.10
2023-03-10T17:07:55.485Z,21.13
2023-03-10T17:10:26.862Z,21.00
2023-03-10T17:12:54.939Z,20.33
2023-03-10T17:15:25.067Z,23.53
2023-03-10T17:17:53.314Z,22.73
2023-03-10T17:20:21.607Z,24.50
2023-03-10T17:22:49.519Z,27.23
2023-03-10T17:25:17.947Z,23.23
2023-03-10T17:27:46.242Z,19.80
2023-03-10T17:30:19.108Z,27.67
2023-03-10T17:32:51.151Z,24.83
2023-03-10T17:35:19.690Z,30.60
2023-03-10T17:37:47.605Z,25.93
2023-03-10T17:40:18.985Z,27.50
2023-03-10T17:42:47.442Z,23.73
2023-03-10T17:45:16.317Z,16.17
2023-03-10T17:47:44.511Z,24.13
2023-03-10T17:50:14.599Z,22.40
2023-03-10T17:52:42.640Z,18.73
2023-03-10T17:55:11.330Z,18.07
2023-03-10T17:57:40.831Z,23.37
2023-03-10T18:00:13.902Z,22.23
2023-03-10T18:02:42.145Z,20.87
2023-03-10T18:05:11.830Z,24.77
2023-03-10T18:07:41.451Z,20.30
2023-03-10T18:10:11.348Z,20.73
2023-03-10T18:12:39.914Z,21.00
2023-03-10T18:15:09.088Z,21.03
2023-03-10T18:17:37.043Z,21.53
2023-03-10T18:20:10.316Z,25.53
2023-03-10T18:22:38.751Z,23.17
2023-03-10T18:25:09.084Z,20.13
2023-03-10T18:27:37.319Z,23.10
2023-03-10T18:30:08.405Z,20.90
2023-03-10T18:32:36.539Z,19.97
2023-03-10T18:35:05.120Z,19.67
2023-03-10T18:37:33.939Z,18.77
2023-03-10T18:40:02.315Z,23.60
2023-03-10T18:42:33.404Z,18.30
2023-03-10T18:45:01.445Z,19.47
2023-03-10T18:47:36.460Z,18.03
2023-03-10T18:50:05.579Z,17.53
2023-03-10T18:52:34.152Z,18.53
2023-03-10T18:55:02.366Z,18.47
2023-03-10T18:57:34.828Z,18.37
2023-03-10T19:00:06.260Z,16.37
2023-03-10T19:02:35.513Z,17.80
2023-03-10T19:05:05.304Z,16.63
2023-03-10T19:07:36.678Z,17.73
2023-03-10T19:10:05.729Z,16.13
2023-03-10T19:12:35.425Z,19.40
2023-03-10T19:15:09.050Z,19.80
2023-03-10T19:17:39.595Z,19.17
2023-03-10T19:20:11.599Z,18.03
2023-03-10T19:22:42.168Z,20.80
2023-03-10T19:25:13.541Z,17.60
2023-03-10T19:27:46.212Z,16.10
2023-03-10T19:30:17.994Z,17.20
2023-03-10T19:32:46.670Z,15.87
2023-03-10T19:35:15.803Z,13.40
2023-03-10T19:37:44.304Z,15.53
2023-03-10T19:40:16.237Z,15.20
2023-03-10T19:42:46.578Z,14.47
2023-03-10T19:45:16.980Z,16.23
2023-03-10T19:47:45.881Z,17.80
2023-03-10T19:50:17.445Z,14.83
2023-03-10T19:52:46.190Z,17.63
2023-03-10T19:55:17.948Z,21.40
2023-03-10T19:57:48.240Z,20.30
2023-03-10T20:00:18.941Z,17.03
2023-03-10T20:02:47.451Z,17.63
2023-03-10T20:05:16.980Z,17.17
2023-03-10T20:07:47.220Z,17.77
2023-03-10T20:10:16.135Z,16.93
2023-03-10T20:12:47.325Z,18.57
2023-03-10T20:15:17.297Z,18.63
2023-03-10T20:17:45.423Z,18.97
2023-03-10T20:20:15.281Z,18.97
2023-03-10T20:22:45.751Z,17.03
2023-03-10T20:25:17.492Z,19.77
2023-03-10T20:27:46.398Z,21.93
2023-03-10T20:30:19.303Z,19.93
2023-03-10T20:32:48.103Z,18.17
2023-03-10T20:35:17.787Z,17.57
2023-03-10T20:37:45.680Z,20.33
2023-03-10T20:40:15.424Z,20.17
2023-03-10T20:42:43.703Z,19.50
2023-03-10T20:45:12.625Z,22.37
2023-03-10T20:47:42.486Z,23.83
2023-03-10T20:50:13.188Z,23.77
2023-03-10T20:52:44.100Z,26.03
2023-03-10T20:55:17.735Z,22.83
2023-03-10T20:57:48.647Z,20.77
2023-03-10T21:00:18.718Z,24.13
2023-03-10T21:02:51.328Z,23.03
2023-03-10T21:05:19.823Z,24.80
2023-03-10T21:07:48.067Z,21.87
2023-03-10T21:10:16.889Z,23.50
2023-03-10T21:12:45.482Z,21.87
2023-03-10T21:15:15.945Z,26.03
2023-03-10T21:17:44.381Z,20.50
2023-03-10T21:20:17.640Z,26.30
2023-03-10T21:22:45.783Z,23.07
2023-03-10T21:25:16.744Z,21.27
2023-03-10T21:27:48.169Z,23.23
2023-03-10T21:30:17.405Z,21.93
2023-03-10T21:32:45.937Z,21.53
2023-03-10T21:35:15.352Z,20.30
2023-03-10T21:37:46.878Z,21.33
2023-03-10T21:40:19.615Z,22.27
2023-03-10T21:42:48.078Z,23.77
2023-03-10T21:45:18.414Z,20.80
2023-03-10T21:47:46.769Z,25.17
2023-03-10T21:50:17.759Z,25.30
2023-03-10T21:52:46.305Z,23.87
2023-03-10T21:55:27.082Z,22.83
2023-03-10T21:57:55.091Z,25.33
2023-03-10T22:00:24.386Z,23.90
2023-03-10T22:02:53.288Z,23.80
2023-03-10T22:05:22.728Z,20.77
2023-03-10T22:07:53.466Z,22.00
2023-03-10T22:10:21.517Z,21.10
2023-03-10T22:12:49.648Z,26.23
2023-03-10T22:15:21.802Z,20.23
2023-03-10T22:17:49.660Z,22.20
2023-03-10T22:20:20.715Z,22.27
2023-03-10T22:22:50.696Z,20.93
2023-03-10T22:25:19.520Z,13.90
2023-03-10T22:27:53.538Z,19.83
2023-03-10T22:30:22.752Z,19.73
2023-03-10T22:32:50.887Z,20.97
2023-03-10T22:35:19.797Z,20.33
2023-03-10T22:37:51.402Z,16.37
2023-03-10T22:40:21.953Z,18.53
2023-03-10T22:42:50.218Z,22.77
2023-03-10T22:45:21.956Z,23.80
2023-03-10T22:47:51.264Z,20.67
2023-03-10T22:50:23.499Z,19.73
2023-03-10T22:52:52.957Z,23.80
2023-03-10T22:55:25.364Z,20.93
2023-03-10T22:57:53.709Z,15.93
2023-03-10T23:00:23.753Z,17.53
2023-03-10T23:02:53.812Z,17.37
2023-03-10T23:05:22.741Z,15.20
2023-03-10T23:07:53.262Z,14.77
2023-03-10T23:10:24.115Z,16.53
2023-03-10T23:12:52.229Z,16.93
2023-03-10T23:15:25.131Z,16.97
2023-03-10T23:17:54.070Z,13.23
2023-03-10T23:20:24.091Z,17.70
2023-03-10T23:22:54.132Z,14.10
2023-03-10T23:25:24.799Z,15.87
2023-03-10T23:27:52.565Z,15.63
2023-03-10T23:30:20.651Z,21.17
2023-03-10T23:32:50.492Z,20.07
2023-03-10T23:35:25.008Z,19.50
2023-03-10T23:37:54.830Z,20.73
2023-03-10T23:40:26.896Z,22.97
2023-03-10T23:42:55.066Z,21.40
2023-03-10T23:45:28.092Z,20.80
2023-03-10T23:47:56.789Z,14.63
2023-03-10T23:50:27.474Z,16.63
2023-03-10T23:52:57.459Z,18.23
2023-03-10T23:55:26.695Z,18.73
2023-03-10T23:57:55.452Z,19.40
